Time;durP1;ratioP1;P1;durP2;ratioP2;P2;SDS_P1;SDS_P2;PMS_P1;PMS_P2;Temp;Humidity;BMP_temperature;BMP_pressure;BME280_temperature;BME280_humidity;BME280_pressure;Samples;Min_cycle;Max_cycle;Signal;HPM_P1;HPM_P2
2022/03/12 00:11:51;;;;;;;7.30;5.57;;;9.90;28.00;;;10.97;25.30;98795.03;4829277;29;115213;-76
2022/03/12 00:17:59;;;;;;;6.30;5.30;;;9.60;27.90;;;10.99;25.50;98803.84;4828765;29;126287;-79
2022/03/12 00:24:15;;;;;;;6.80;5.50;;;8.60;27.50;;;10.98;25.63;98808.53;4810559;29;115122;-80
2022/03/12 00:30:27;;;;;;;6.07;4.73;;;10.30;27.90;;;10.95;25.69;98809.16;4825365;29;124854;-89
2022/03/12 00:36:36;;;;;;;8.00;5.97;;;9.00;27.90;;;10.97;25.51;98811.63;4828608;29;116000;-76
2022/03/12 00:42:44;;;;;;;7.67;6.43;;;9.00;28.10;;;10.91;25.74;98808.19;4828245;29;124794;-77
2022/03/12 00:48:53;;;;;;;9.07;6.50;;;9.70;28.70;;;10.87;25.97;98817.41;4810044;29;114289;-81
2022/03/12 00:55:02;;;;;;;5.93;5.30;;;9.20;28.60;;;10.88;25.88;98817.09;4810185;29;124887;-78
2022/03/12 01:01:12;;;;;;;7.70;6.33;;;9.30;28.80;;;10.86;26.60;98807.47;4809568;29;115018;-80
2022/03/12 01:07:21;;;;;;;8.33;5.53;;;9.60;29.10;;;10.82;26.13;98804.50;4809530;29;124913;-86
2022/03/12 01:53:31;;;;;;;7.93;6.00;;;8.70;28.80;;;10.59;26.18;98814.75;4837155;29;124823;-77
2022/03/12 01:59:43;;;;;;;7.43;5.57;;;8.50;28.70;;;10.50;26.19;98809.13;4849747;29;114970;-77
2022/03/12 02:05:53;;;;;;;8.27;6.40;;;8.20;28.60;;;10.46;26.46;98801.81;4830565;29;124858;-79
2022/03/12 02:12:02;;;;;;;13.23;5.77;;;9.70;29.60;;;10.38;26.40;98792.31;4830786;29;115104;-76
2022/03/12 02:18:14;;;;;;;7.57;4.90;;;9.00;29.20;;;10.37;26.70;98815.53;4844117;29;124890;-77
2022/03/12 02:24:26;;;;;;;9.53;6.20;;;8.30;28.70;;;10.34;26.29;98810.59;4849806;29;114344;-77
2022/03/12 02:30:42;;;;;;;6.70;5.70;;;9.00;29.20;;;10.33;26.66;98803.47;4848976;29;124784;-77
2022/03/12 02:36:55;;;;;;;5.90;5.03;;;8.60;28.90;;;10.29;26.12;98816.25;4842711;29;115987;-76
2022/03/12 02:43:06;;;;;;;7.10;4.77;;;8.30;28.80;;;10.32;26.60;98823.94;4848662;29;124789;-77
2022/03/12 02:53:19;;;;;;;8.10;6.00;;;9.20;29.30;;;10.23;26.50;98820.22;4830073;29;125126;-76
2022/03/12 02:59:28;;;;;;;6.67;5.70;;;8.40;28.90;;;10.16;26.50;98827.00;4830099;29;115325;-77
2022/03/12 03:05:47;;;;;;;6.97;5.87;;;8.30;28.90;;;10.07;26.50;98828.81;4829417;29;125168;-75
2022/03/12 06:19:18;;;;;;;6.20;4.87;;;8.30;31.70;;;8.99;28.20;98976.09;5863169;23;98472;31
2022/03/12 06:25:27;;;;;;;7.20;5.57;;;7.80;31.20;;;8.93;28.47;98982.00;4736581;29;125149;-76
2022/03/12 06:31:36;;;;;;;7.33;5.37;;;7.30;30.80;;;8.98;28.37;98982.72;4736334;29;116244;-78
2022/03/12 06:37:45;;;;;;;6.73;4.80;;;7.70;31.10;;;9.02;28.05;98988.47;4740719;29;125194;-79
2022/03/12 06:43:55;;;;;;;7.63;4.70;;;7.00;30.30;;;9.09;28.31;99002.69;4752438;29;115148;-76
2022/03/12 06:46:40;;;;;;;7.10;5.50;;;8.40;31.40;;;9.12;28.32;98988.31;4750032;29;114724;-79
2022/03/12 06:52:50;;;;;;;7.47;5.33;;;7.80;30.90;;;9.14;28.19;98977.81;4733676;29;124999;-77
2022/03/12 06:58:58;;;;;;;7.33;5.30;;;8.10;31.20;;;9.24;28.33;98993.38;4752612;29;115084;-76
2022/03/12 07:05:08;;;;;;;9.67;5.07;;;7.60;30.80;;;9.34;28.45;98997.91;4757068;29;124805;-75
2022/03/12 07:27:24;;;;;;;6.53;4.77;;;8.30;31.20;;;9.63;28.25;98995.78;4829590;29;124857;-79
2022/03/12 07:33:33;;;;;;;12.43;6.00;;;8.50;31.20;;;9.75;28.10;99009.09;4829696;29;115947;-76
2022/03/12 07:39:42;;;;;;;8.33;5.33;;;7.80;30.50;;;9.74;28.02;99008.28;4847953;29;124787;-81
2022/03/12 07:45:51;;;;;;;8.43;5.10;;;10.40;31.80;;;9.89;27.90;99017.44;4847219;29;115015;-81
2022/03/12 07:48:38;;;;;;;9.50;6.10;;;9.10;31.60;;;9.98;28.05;99012.84;4831252;29;124038;-77
2022/03/12 07:54:47;;;;;;;8.60;6.50;;;10.60;31.80;;;10.00;28.00;99009.81;4847963;29;115284;-81
2022/03/12 08:01:54;;;;;;;7.17;5.87;;;9.30;31.50;;;10.06;27.96;99017.69;4846540;29;125163;-90
2022/03/12 08:04:22;;;;;;;9.00;5.43;;;8.10;30.40;;;10.09;27.76;99013.50;4846380;29;124503;-92
2022/03/12 08:16:25;;;;;;;7.00;4.57;;;9.40;31.20;;;10.25;27.49;98997.47;4846538;29;124843;-81
2022/03/12 08:22:43;;;;;;;8.50;6.33;;;8.40;30.20;;;10.28;27.33;98994.94;4847767;29;115102;-76
2022/03/12 08:28:52;;;;;;;8.20;6.50;;;8.20;30.00;;;10.36;27.66;99005.25;4828482;29;124913;-77
2022/03/12 08:35:07;;;;;;;12.77;6.10;;;10.60;31.30;;;10.47;27.90;99003.13;4846461;29;115912;-90
2022/03/12 08:41:16;;;;;;;11.20;7.10;;;9.30;30.90;;;10.54;27.39;99011.81;4846430;29;124908;-91
2022/03/12 08:43:46;;;;;;;8.20;6.83;;;9.80;31.50;;;10.57;27.60;99008.44;4826618;29;112532;-81
2022/03/12 08:46:15;;;;;;;9.10;6.30;;;9.80;31.40;;;10.64;27.90;98999.75;4811714;29;113616;-86
2022/03/12 08:52:23;;;;;;;8.13;6.03;;;8.70;30.50;;;10.83;27.46;98999.63;4828774;29;124844;-75
2022/03/12 08:58:32;;;;;;;6.70;5.00;;;8.70;30.30;;;11.00;27.29;99004.50;4828141;29;114461;-92
2022/03/12 09:04:42;;;;;;;6.90;5.20;;;10.20;30.30;;;11.11;27.25;99005.09;4845652;29;124816;-83
2022/03/12 09:10:23;;;;;;;10.50;6.37;;;10.50;30.50;;;11.28;27.01;99006.09;4939161;23;115569;-83
2022/03/12 09:12:53;;;;;;;6.90;5.60;;;10.40;30.40;;;11.34;27.14;99001.25;4826675;29;124084;-89
2022/03/12 09:19:03;;;;;;;8.17;5.77;;;10.60;30.30;;;11.43;27.43;98999.38;4843803;29;114736;-92
2022/03/12 09:22:08;;;;;;;8.93;6.50;;;10.70;30.40;;;11.49;27.22;99000.06;4829335;29;114404;-85
2022/03/12 09:28:19;;;;;;;7.53;5.47;;;10.40;30.00;;;11.60;26.91;99006.97;4845879;29;126482;-81
2022/03/12 09:31:44;;;;;;;11.17;7.60;;;11.90;31.30;;;11.64;26.83;99008.00;4829243;29;113673;-79
2022/03/12 09:37:55;;;;;;;7.80;5.90;;;9.50;30.00;;;11.72;27.04;98998.94;4826458;29;126477;-90
2022/03/12 09:44:07;;;;;;;7.10;5.10;;;9.60;30.00;;;11.89;27.10;98991.91;4826580;29;115215;-88
2022/03/12 09:50:19;;;;;;;6.80;5.70;;;10.90;30.10;;;12.09;27.06;98998.84;4843944;29;125130;-91
2022/03/12 09:52:46;;;;;;;7.43;5.50;;;12.20;31.10;;;12.16;27.13;98990.91;4827105;29;123005;-89
2022/03/12 09:55:16;;;;;;;11.47;8.10;;;11.30;30.30;;;12.24;26.63;98981.00;4822539;29;113744;-90
2022/03/12 10:01:26;;;;;;;13.73;9.67;;;11.40;30.20;;;12.27;27.05;98980.38;4840056;29;125092;-90
2022/03/12 10:04:13;;;;;;;15.47;10.37;;;11.50;30.40;;;12.31;26.91;98978.63;4832087;29;123885;-91
2022/03/12 10:06:57;;;;;;;11.87;8.53;;;11.60;30.40;;;12.40;26.88;98978.63;4826323;29;114252;-91
2022/03/12 10:09:25;;;;;;;10.73;7.43;;;11.50;30.30;;;12.48;26.61;98975.09;4810933;29;113803;-89
2022/03/12 10:11:52;;;;;;;12.73;8.27;;;11.60;30.50;;;12.56;26.65;98969.56;4825485;29;124841;-90
2022/03/12 10:14:59;;;;;;;11.57;8.40;;;11.70;30.30;;;12.67;26.64;98970.06;4812850;29;122758;-91
2022/03/12 10:21:08;;;;;;;13.60;8.07;;;10.70;29.60;;;12.82;26.95;98968.81;4832578;29;115012;-92
2022/03/12 10:24:52;;;;;;;14.30;8.43;;;11.80;30.50;;;12.93;26.70;98967.38;4847312;29;124752;-89
2022/03/12 10:27:21;;;;;;;13.93;8.27;;;10.70;29.60;;;13.00;26.65;98970.50;4825169;29;123841;-91
2022/03/12 10:29:49;;;;;;;11.57;8.30;;;12.30;30.80;;;13.11;27.01;98971.00;4793439;29;114742;-93
2022/03/12 10:36:17;;;;;;;12.43;8.07;;;12.40;30.70;;;13.30;26.93;98956.00;4827794;29;125004;-92
2022/03/12 10:42:53;;;;;;;11.03;7.90;;;12.70;30.80;;;13.53;26.65;98938.03;4829900;29;115366;-91
2022/03/12 10:46:01;;;;;;;14.30;8.53;;;12.80;30.90;;;13.64;26.73;98942.06;4825290;29;114708;-90
2022/03/12 10:52:32;;;;;;;13.03;9.60;;;12.80;30.70;;;13.81;26.69;98944.03;4827365;29;124303;-92
2022/03/12 11:06:23;;;;;;;12.93;9.47;;;13.40;31.00;;;14.32;26.54;98927.50;4824463;29;124294;-92
2022/03/12 11:08:50;;;;;;;14.37;10.10;;;13.60;31.20;;;14.43;26.67;98925.97;4816077;29;115212;-90
2022/03/12 11:11:39;;;;;;;16.27;10.40;;;13.70;31.40;;;14.53;26.56;98924.78;4821199;29;114566;-91
2022/03/12 11:14:47;;;;;;;16.03;10.97;;;13.80;31.40;;;14.60;26.58;98922.31;4820215;29;123759;-92
2022/03/12 11:17:53;;;;;;;13.77;8.87;;;13.90;31.30;;;14.71;26.76;98919.94;4804272;29;124541;-91
2022/03/12 11:24:23;;;;;;;17.77;9.00;;;14.10;31.50;;;14.97;26.68;98911.44;4821265;29;115116;-93
2022/03/12 11:27:03;;;;;;;12.93;9.07;;;14.30;31.70;;;15.15;26.62;98906.53;4801932;29;123928;-92
2022/03/12 11:30:27;;;;;;;10.20;6.90;;;14.40;31.80;;;15.32;26.92;98906.38;4785544;29;123793;-91
2022/03/12 11:33:06;;;;;;;10.23;7.20;;;14.60;32.10;;;15.51;26.78;98896.72;4805761;29;115690;-91
2022/03/12 11:36:30;;;;;;;10.73;6.87;;;14.80;32.40;;;15.66;26.79;98896.06;4800646;29;114617;-91
2022/03/12 11:38:58;;;;;;;8.07;5.77;;;14.90;32.30;;;15.83;26.60;98881.97;4805260;29;122787;-92
2022/03/12 11:41:27;;;;;;;8.67;6.13;;;15.00;32.30;;;16.00;26.65;98885.72;4808338;29;122527;-91
2022/03/12 11:43:55;;;;;;;13.13;8.40;;;15.20;32.30;;;16.16;26.70;98883.88;4808237;29;114510;-92
2022/03/12 11:46:23;;;;;;;9.57;7.30;;;15.30;32.40;;;16.28;26.32;98881.09;4787023;29;113166;-92
2022/03/12 11:48:52;;;;;;;10.97;8.33;;;15.50;32.30;;;16.41;26.56;98875.50;4811158;29;124479;-92
2022/03/12 11:51:38;;;;;;;11.23;8.17;;;15.60;32.90;;;16.53;26.26;98884.69;4808906;29;123258;-91
2022/03/12 11:54:08;;;;;;;11.37;8.10;;;15.70;32.10;;;16.63;26.17;98880.63;4804491;29;114313;-92
2022/03/12 11:57:32;;;;;;;12.13;8.70;;;15.80;32.10;;;16.72;26.04;98875.69;4810551;29;113455;-94
2022/03/12 12:00:37;;;;;;;11.10;8.30;;;16.00;31.90;;;16.83;26.01;98883.63;4799358;29;98641;-91
2022/03/12 12:03:06;;;;;;;8.13;6.60;;;16.10;31.80;;;16.95;26.13;98870.47;4776960;29;123201;-92
2022/03/12 12:05:34;;;;;;;11.00;8.37;;;16.20;31.90;;;17.10;26.22;98871.69;4794300;29;112895;-91
2022/03/12 12:08:03;;;;;;;10.13;7.70;;;16.30;31.90;;;17.21;25.84;98863.63;4803734;29;113509;-92
2022/03/12 12:10:31;;;;;;;11.43;8.80;;;16.50;32.00;;;17.31;25.88;98857.53;4807272;29;122012;-94
2022/03/12 12:12:58;;;;;;;11.00;7.87;;;16.50;31.80;;;17.40;25.91;98852.56;4808864;29;123627;-92
2022/03/12 12:15:34;;;;;;;14.13;9.23;;;16.60;31.80;;;17.49;25.82;98855.22;4811069;29;114790;-91
2022/03/12 12:18:02;;;;;;;16.50;10.17;;;16.70;31.70;;;17.54;25.87;98846.56;4806277;29;113926;-90
2022/03/12 12:20:49;;;;;;;11.23;9.07;;;16.80;31.60;;;17.61;25.66;98841.19;4794522;29;123977;-90
2022/03/12 12:23:20;;;;;;;10.20;7.40;;;16.90;31.60;;;17.68;25.63;98829.41;4807843;29;121749;-92
2022/03/12 12:26:07;;;;;;;10.67;7.67;;;17.00;31.70;;;17.77;25.81;98827.22;4782574;29;114689;-91
2022/03/12 12:28:50;;;;;;;9.70;7.77;;;17.10;31.80;;;17.91;25.34;98831.59;4797273;29;114163;-95
2022/03/12 12:31:26;;;;;;;13.70;8.00;;;17.20;31.90;;;18.04;25.61;98816.34;4804424;29;123758;-92
2022/03/12 12:34:13;;;;;;;10.37;8.80;;;17.40;31.80;;;18.12;25.48;98820.94;4800456;29;122975;-92
2022/03/12 12:36:58;;;;;;;12.57;8.50;;;17.50;31.60;;;18.22;25.38;98816.78;4806262;29;113709;-92
2022/03/12 12:39:43;;;;;;;8.10;6.43;;;17.50;31.50;;;18.37;25.26;98821.53;4791435;29;113761;-93
2022/03/12 12:42:12;;;;;;;8.83;6.47;;;17.60;31.40;;;18.53;25.26;98813.09;4805791;29;123455;-93
2022/03/12 12:44:39;;;;;;;9.77;7.70;;;17.80;31.40;;;18.68;25.34;98811.44;4801596;29;122800;-93
2022/03/12 12:47:17;;;;;;;8.50;6.50;;;17.90;31.60;;;18.72;25.36;98801.13;4804045;29;114226;-92
2022/03/12 12:49:56;;;;;;;7.37;6.23;;;18.00;31.70;;;18.81;25.59;98810.16;4787185;29;113283;-92
2022/03/12 12:52:26;;;;;;;15.20;6.40;;;18.10;31.90;;;18.91;25.53;98794.75;4787072;29;123099;-92
2022/03/12 12:55:50;;;;;;;10.07;6.83;;;18.20;32.10;;;19.05;25.60;98805.44;4803024;29;124136;-92
2022/03/12 12:59:01;;;;;;;7.50;5.87;;;18.30;32.20;;;19.19;25.42;98788.94;4789871;29;114334;-94
2022/03/12 13:01:44;;;;;;;7.13;6.03;;;18.50;32.20;;;19.34;25.21;98782.44;4803082;29;113287;-92
2022/03/12 13:04:14;;;;;;;7.10;5.50;;;18.60;32.10;;;19.53;25.23;98775.97;4801226;29;123235;-93
2022/03/12 13:06:49;;;;;;;5.00;4.37;;;18.80;32.10;;;19.70;25.41;98766.28;4786195;29;124184;-90
2022/03/12 13:09:48;;;;;;;11.00;8.23;;;18.90;32.10;;;19.79;25.06;98769.63;4774039;29;115119;-92
2022/03/12 13:12:16;;;;;;;7.30;6.00;;;19.00;31.90;;;19.77;25.02;98758.00;4786783;29;114078;-93
2022/03/12 13:15:03;;;;;;;6.90;5.77;;;19.10;31.90;;;19.85;25.30;98758.88;4757682;29;123684;-92
2022/03/12 13:17:35;;;;;;;7.63;5.60;;;19.20;32.10;;;19.96;25.08;98754.28;4783333;29;123656;-93
2022/03/12 13:20:44;;;;;;;6.43;5.70;;;19.30;32.10;;;19.99;25.27;98747.13;4776933;29;114595;-93
2022/03/12 13:23:11;;;;;;;9.53;4.80;;;19.30;32.30;;;20.11;25.38;98748.88;4792612;29;114486;-89
2022/03/12 13:25:59;;;;;;;5.50;4.17;;;19.40;32.40;;;20.22;25.36;98756.25;4797538;29;123644;-89
2022/03/12 13:28:44;;;;;;;7.23;5.83;;;19.50;32.40;;;20.25;24.95;98738.66;4775733;29;124322;-88
2022/03/12 13:31:40;;;;;;;6.33;5.00;;;19.60;32.10;;;20.20;25.02;98750.25;4796545;29;113309;-89
2022/03/12 13:34:12;;;;;;;6.70;5.10;;;19.60;32.20;;;20.25;24.97;98746.28;4794972;29;113973;-89
2022/03/12 13:36:48;;;;;;;6.13;5.40;;;19.60;32.10;;;20.24;25.04;98748.28;4786352;29;123213;-93
2022/03/12 13:39:17;;;;;;;6.00;4.50;;;19.60;32.70;;;20.32;25.33;98742.78;4783317;29;122537;-90
2022/03/12 13:41:46;;;;;;;4.73;4.00;;;19.70;32.20;;;20.48;25.20;98746.22;4777761;29;114327;-90
2022/03/12 13:44:16;;;;;;;4.37;3.70;;;19.80;32.30;;;20.66;25.18;98735.25;4783808;29;114186;-92
2022/03/12 13:46:47;;;;;;;5.43;4.07;;;19.90;32.20;;;20.81;24.83;98741.84;4769917;29;123123;-90
2022/03/12 13:49:17;;;;;;;3.67;3.00;;;20.10;32.20;;;20.96;24.76;98738.84;4789249;29;123111;-90
2022/03/12 13:51:55;;;;;;;3.00;2.70;;;20.20;32.20;;;21.12;24.65;98730.19;4765711;29;114847;-90
2022/03/12 13:54:24;;;;;;;4.47;3.50;;;20.40;32.20;;;21.31;24.48;98722.75;4781218;29;113785;-92
2022/03/12 13:56:51;;;;;;;2.83;2.37;;;20.50;32.10;;;21.46;24.50;98716.09;4780682;29;123937;-91
2022/03/12 13:59:27;;;;;;;3.20;2.80;;;20.70;32.10;;;21.58;24.10;98717.81;4778305;29;123701;-90
2022/03/12 14:01:56;;;;;;;4.27;3.50;;;20.80;31.90;;;21.70;24.23;98722.31;4766036;29;114887;-92
2022/03/12 14:04:27;;;;;;;4.23;3.47;;;21.00;31.70;;;21.75;24.02;98719.16;4762937;29;114087;-91
2022/03/12 14:06:54;;;;;;;3.37;2.83;;;21.10;31.60;;;21.83;24.03;98718.00;4762651;29;124325;-90
2022/03/12 14:09:23;;;;;;;5.57;4.80;;;21.20;31.60;;;21.94;23.85;98710.44;4775523;29;123602;-91
2022/03/12 14:11:56;;;;;;;3.90;3.33;;;21.30;31.20;;;21.97;23.72;98711.69;4780916;29;115315;-90
2022/03/12 14:14:28;;;;;;;6.07;4.60;;;21.30;31.20;;;22.02;23.89;98703.66;4783705;29;114001;-92
2022/03/12 14:17:04;;;;;;;3.90;3.50;;;21.40;30.90;;;22.04;23.76;98704.09;4779048;29;124226;-91
2022/03/12 14:19:32;;;;;;;3.37;2.90;;;21.50;31.00;;;22.10;23.81;98692.47;4779659;29;123802;-92
2022/03/12 14:22:02;;;;;;;9.40;4.50;;;21.50;31.00;;;22.14;23.42;98699.75;4779955;29;114493;-91
2022/03/12 14:24:34;;;;;;;4.17;3.77;;;21.50;30.50;;;22.11;23.50;98705.34;4795367;29;114068;-90
2022/03/12 14:27:03;;;;;;;3.63;3.20;;;21.60;30.60;;;22.14;23.54;98711.00;4766920;29;123665;-90
2022/03/12 14:29:41;;;;;;;4.00;3.33;;;21.60;31.30;;;22.21;23.44;98705.44;4797182;29;123616;-90
2022/03/12 14:32:13;;;;;;;3.83;3.37;;;21.70;30.60;;;22.30;23.59;98698.63;4780692;29;114773;-91
2022/03/12 14:34:42;;;;;;;6.40;4.67;;;21.70;30.50;;;22.34;23.00;98691.84;4797276;29;114013;-89
2022/03/12 14:37:11;;;;;;;4.80;3.47;;;21.80;30.00;;;22.36;23.33;98700.69;4796479;29;124409;-91
2022/03/12 14:39:41;;;;;;;7.57;5.00;;;21.80;30.10;;;22.35;22.61;98690.63;4781643;29;123616;-92
2022/03/12 14:42:11;;;;;;;5.40;3.77;;;21.80;29.80;;;22.32;23.10;98688.59;4796960;29;114362;-91
2022/03/12 14:44:43;;;;;;;3.73;3.20;;;21.90;30.00;;;22.35;23.32;98690.63;4797103;29;114104;-89
2022/03/12 14:47:14;;;;;;;3.80;3.40;;;21.90;30.00;;;22.41;22.94;98679.81;4798582;29;124345;-91
2022/03/12 14:49:52;;;;;;;3.20;2.90;;;21.90;30.00;;;22.49;22.78;98676.63;4797981;29;123896;-92
2022/03/12 14:52:23;;;;;;;3.93;3.33;;;21.90;30.00;;;22.60;22.75;98685.13;4798826;29;114265;-90
2022/03/12 14:54:55;;;;;;;6.80;3.83;;;22.00;30.00;;;22.69;22.80;98679.13;4780009;29;113267;-88
2022/03/12 14:57:25;;;;;;;5.83;4.10;;;22.10;29.80;;;22.68;22.51;98671.88;4782295;29;123763;-91
2022/03/12 14:59:54;;;;;;;4.30;3.30;;;22.20;29.80;;;22.70;22.79;98677.91;4796978;29;123841;-92
2022/03/12 15:02:25;;;;;;;5.20;3.50;;;22.20;29.80;;;22.76;22.68;98669.91;4782679;29;114575;-91
2022/03/12 15:04:51;;;;;;;4.73;3.50;;;22.20;29.70;;;22.77;22.41;98677.13;4798971;29;115187;-91
2022/03/12 15:07:22;;;;;;;5.73;4.70;;;22.20;29.50;;;22.76;22.48;98672.72;4798628;29;125159;-92
2022/03/12 15:10:04;;;;;;;4.43;3.77;;;22.30;29.50;;;22.74;22.28;98670.28;4782197;29;124127;-91
2022/03/12 15:12:35;;;;;;;3.67;3.30;;;22.30;29.40;;;22.74;22.30;98664.66;4796481;29;114942;-90
2022/03/12 15:15:25;;;;;;;4.40;3.70;;;22.30;29.50;;;22.78;22.50;98667.47;4783514;29;113061;-92
2022/03/12 15:17:58;;;;;;;3.87;3.47;;;22.40;29.50;;;22.81;22.37;98666.66;4796708;29;124178;-93
2022/03/12 15:20:28;;;;;;;3.67;2.97;;;22.40;29.50;;;22.84;22.57;98669.53;4796278;29;122908;-92
2022/03/12 15:23:13;;;;;;;3.10;2.80;;;22.40;29.50;;;22.93;22.30;98667.13;4795971;29;114293;-91
2022/03/12 15:25:48;;;;;;;3.63;3.20;;;22.50;29.50;;;23.00;22.05;98671.19;4797425;29;114026;-90
2022/03/12 15:28:18;;;;;;;3.27;2.97;;;22.50;29.40;;;23.05;22.16;98679.25;4799164;29;123316;-91
2022/03/12 15:30:51;;;;;;;3.43;3.13;;;22.60;29.40;;;23.11;21.81;98666.41;4799048;29;122957;-93
2022/03/12 15:33:45;;;;;;;4.30;3.90;;;22.60;29.40;;;23.12;21.88;98674.44;4800926;29;114354;-94
2022/03/12 15:36:25;;;;;;;3.90;3.30;;;22.70;29.10;;;23.13;21.84;98669.59;4800751;29;114197;-94
2022/03/12 15:38:59;;;;;;;3.97;3.50;;;22.70;29.20;;;23.16;21.93;98668.81;4796279;29;123278;-93
2022/03/12 15:41:28;;;;;;;4.27;3.20;;;22.70;29.00;;;23.18;22.06;98666.38;4796354;29;123628;-92
2022/03/12 15:43:58;;;;;;;4.07;2.80;;;22.80;29.10;;;23.20;21.95;98663.97;4795084;29;113554;-93
2022/03/12 15:46:31;;;;;;;7.03;3.20;;;22.80;29.00;;;23.26;22.02;98670.81;4741137;29;112747;-93
2022/03/12 15:49:10;;;;;;;5.73;3.30;;;22.90;29.00;;;23.31;21.84;98659.16;4743308;29;124633;-93
2022/03/12 15:51:38;;;;;;;4.50;3.83;;;23.00;28.90;;;23.32;21.61;98662.78;4740798;29;122873;-92
2022/03/12 15:54:05;;;;;;;4.13;3.60;;;22.90;28.70;;;23.32;21.76;98660.78;4728314;29;114372;-90
2022/03/12 15:56:32;;;;;;;3.73;3.30;;;22.90;28.60;;;23.32;21.62;98657.97;4742361;29;115352;-92
2022/03/12 15:58:59;;;;;;;3.50;3.17;;;23.00;28.70;;;23.30;21.69;98657.56;4741742;29;124861;-90
2022/03/12 16:01:26;;;;;;;4.13;3.70;;;23.00;28.60;;;23.27;21.43;98660.38;4738036;29;123782;-90
2022/03/12 16:03:58;;;;;;;5.23;3.70;;;23.00;28.40;;;23.20;21.58;98652.69;4742851;29;113939;-90
2022/03/12 16:06:39;;;;;;;3.80;3.40;;;23.00;28.40;;;23.15;21.55;98651.06;4739045;29;113528;-90
2022/03/12 16:09:17;;;;;;;4.40;4.00;;;22.90;28.30;;;23.08;21.78;98656.72;4727216;29;124149;-88
2022/03/12 16:11:44;;;;;;;8.03;3.57;;;22.90;28.30;;;23.04;21.83;98655.09;4709614;29;123244;-90
2022/03/12 16:14:13;;;;;;;4.00;3.40;;;22.90;28.20;;;23.00;21.85;98654.28;4723461;29;114845;-88
2022/03/12 16:16:40;;;;;;;3.87;3.47;;;22.80;28.20;;;22.99;21.53;98647.03;4730028;29;113061;-90
2022/03/12 16:19:09;;;;;;;3.50;3.20;;;22.80;28.20;;;22.95;21.70;98647.00;4791701;29;124589;-90
2022/03/12 16:21:36;;;;;;;3.70;3.40;;;22.80;28.20;;;22.88;21.68;98644.97;4778664;29;122950;-89
2022/03/12 16:24:06;;;;;;;4.10;3.30;;;22.70;28.10;;;22.84;21.71;98643.38;4765394;29;113867;-90
2022/03/12 16:26:34;;;;;;;4.37;3.77;;;22.00;27.70;;;22.76;21.69;98647.38;4775756;29;114054;-90
2022/03/12 16:29:11;;;;;;;5.17;4.57;;;22.60;28.10;;;22.59;21.69;98651.72;4795309;29;124283;-90
2022/03/12 16:31:39;;;;;;;4.83;4.33;;;22.50;27.90;;;22.39;21.53;98649.25;4767398;29;122820;-89
2022/03/12 16:34:09;;;;;;;5.27;4.23;;;22.30;27.80;;;22.26;21.76;98647.97;4781617;29;113190;-88
2022/03/12 16:36:41;;;;;;;4.17;3.77;;;22.10;27.90;;;22.13;21.88;98647.47;4780913;29;113239;-91
2022/03/12 16:39:10;;;;;;;4.50;4.00;;;22.00;28.00;;;22.02;22.00;98643.78;4781973;29;124121;-91
2022/03/12 16:41:38;;;;;;;4.17;3.50;;;21.90;28.00;;;21.86;21.92;98641.28;4790582;29;123385;-90
2022/03/12 16:44:06;;;;;;;5.00;4.20;;;21.70;28.00;;;21.72;21.97;98650.44;4796159;29;115559;-92
2022/03/12 16:46:34;;;;;;;5.13;3.90;;;21.60;28.10;;;21.59;22.04;98652.75;4778343;29;115464;-91
2022/03/12 16:49:16;;;;;;;4.40;3.90;;;21.60;28.20;;;21.48;22.01;98637.81;4795332;29;124144;-91
2022/03/12 16:51:43;;;;;;;4.93;4.43;;;21.40;28.30;;;21.35;22.40;98645.69;4782309;29;121485;-92
2022/03/12 16:54:11;;;;;;;3.93;3.53;;;21.20;28.20;;;21.21;22.38;98634.34;4778752;29;114922;-91
2022/03/12 16:56:38;;;;;;;4.97;4.17;;;21.10;28.30;;;21.09;22.73;98634.59;4777350;29;114709;-88
2022/03/12 16:59:04;;;;;;;4.77;4.10;;;20.90;28.30;;;20.97;22.79;98638.53;4775848;29;124631;-91
2022/03/12 17:01:32;;;;;;;5.10;4.10;;;20.80;28.30;;;20.85;22.86;98636.00;4776835;29;123860;-90
2022/03/12 17:03:59;;;;;;;4.50;4.10;;;20.70;28.40;;;20.75;22.76;98637.50;4794689;29;113854;-92
2022/03/12 17:06:27;;;;;;;4.63;4.00;;;20.60;28.50;;;20.64;23.04;98647.81;4780793;29;113040;-89
2022/03/12 17:08:54;;;;;;;4.60;4.07;;;20.40;28.50;;;20.52;22.92;98640.41;4730837;29;1405272;-90
2022/03/12 17:11:23;;;;;;;4.20;3.80;;;20.30;28.60;;;20.42;22.73;98649.53;4798355;29;121651;-89
2022/03/12 17:13:51;;;;;;;5.20;4.40;;;20.20;28.60;;;20.30;23.21;98642.94;4783037;29;114232;-89
2022/03/12 17:16:21;;;;;;;4.43;3.97;;;20.10;28.70;;;20.19;23.36;98652.44;4801257;29;114463;-90
2022/03/12 17:18:49;;;;;;;4.60;4.10;;;20.00;28.80;;;20.05;23.12;98639.81;4796985;29;124229;-89
2022/03/12 17:21:20;;;;;;;4.53;4.00;;;19.80;28.80;;;19.94;23.38;98643.69;4797229;29;123944;-88
2022/03/12 17:23:50;;;;;;;4.63;4.00;;;19.80;28.90;;;19.84;23.53;98648.75;4780176;29;114189;-90
2022/03/12 17:26:26;;;;;;;5.40;4.73;;;19.60;28.90;;;19.73;23.43;98647.78;4780537;29;113691;-90
2022/03/12 17:28:54;;;;;;;6.17;4.70;;;19.50;29.00;;;19.59;23.54;98650.34;4780234;29;122419;-89
2022/03/12 17:31:25;;;;;;;5.53;4.60;;;19.40;29.10;;;19.48;23.77;98666.16;4797914;29;124370;-90
2022/03/12 17:33:53;;;;;;;5.50;4.37;;;19.20;29.00;;;19.34;23.84;98656.34;4785700;29;114148;-90
2022/03/12 17:36:24;;;;;;;4.73;4.23;;;19.10;29.10;;;19.22;23.90;98652.94;4798022;29;116330;-90
2022/03/12 17:38:51;;;;;;;5.00;4.00;;;19.00;29.10;;;19.11;23.78;98647.94;4784157;29;124023;-90
2022/03/12 17:41:18;;;;;;;5.80;4.40;;;18.90;29.20;;;19.03;24.12;98656.59;4768768;29;123962;-90
2022/03/12 17:44:04;;;;;;;4.90;4.27;;;18.80;29.30;;;18.94;24.58;98654.00;4797254;29;114002;-89
2022/03/12 17:46:31;;;;;;;5.30;4.37;;;18.70;29.60;;;18.84;24.38;98669.44;4801937;29;113979;-90
2022/03/12 17:48:58;;;;;;;5.70;4.73;;;18.50;29.60;;;18.74;24.32;98661.63;4798977;29;122920;-90
2022/03/12 17:51:25;;;;;;;5.30;4.63;;;18.50;29.70;;;18.64;24.50;98663.00;4796001;29;124130;-89
2022/03/12 17:53:54;;;;;;;5.70;4.80;;;18.40;29.70;;;18.53;24.51;98674.00;4778878;29;112426;-89
2022/03/12 17:56:21;;;;;;;5.07;4.07;;;18.30;29.80;;;18.43;24.84;98671.81;4798295;29;114317;-89
2022/03/12 17:58:52;;;;;;;6.10;4.87;;;18.10;29.70;;;18.33;24.72;98670.41;4793624;29;124985;-90
2022/03/12 18:01:19;;;;;;;5.43;4.60;;;18.00;29.80;;;18.24;24.72;98674.56;4798160;29;123610;-90
2022/03/12 18:03:46;;;;;;;7.00;4.57;;;17.90;30.30;;;18.15;24.81;98679.59;4778874;29;114074;-91
2022/03/12 18:06:13;;;;;;;5.17;4.30;;;17.80;29.90;;;18.05;24.98;98676.19;4800940;29;113104;-90
2022/03/12 18:08:42;;;;;;;6.67;4.50;;;17.70;29.90;;;17.96;25.11;98667.19;4783424;29;124506;-91
2022/03/12 18:11:09;;;;;;;5.83;4.27;;;17.60;30.00;;;17.89;25.19;98678.19;4799388;29;123208;-90
2022/03/12 18:13:36;;;;;;;5.70;4.57;;;17.50;30.00;;;17.79;25.08;98673.19;4800027;29;114182;-91
2022/03/12 18:16:03;;;;;;;6.23;4.67;;;17.40;30.10;;;17.70;25.21;98680.91;4791759;29;112662;-92
2022/03/12 18:18:31;;;;;;;6.37;4.73;;;17.40;30.30;;;17.62;25.30;98669.59;4800903;29;124226;-90
2022/03/12 18:20:58;;;;;;;5.33;4.40;;;17.30;30.40;;;17.57;25.73;98666.25;4794537;29;122808;-90
2022/03/12 18:23:25;;;;;;;6.80;5.13;;;17.20;30.50;;;17.48;25.59;98677.59;4803391;29;114978;-89
2022/03/12 18:25:51;;;;;;;6.40;5.07;;;17.10;30.60;;;17.41;25.59;98677.44;4776492;29;112753;-90
2022/03/12 18:28:22;;;;;;;7.07;5.37;;;16.90;30.50;;;17.32;25.80;98682.38;4798831;29;123332;-90
2022/03/12 18:31:12;;;;;;;6.30;5.00;;;17.00;30.70;;;17.21;25.90;98674.53;4809472;29;122839;-90
2022/03/12 18:33:40;;;;;;;6.60;4.80;;;16.90;30.80;;;17.11;25.99;98683.44;4712837;29;112701;-91
2022/03/12 18:36:09;;;;;;;6.47;5.03;;;16.80;30.90;;;17.03;25.97;98678.84;4703439;29;113854;-92
2022/03/12 18:38:38;;;;;;;5.43;4.50;;;16.70;30.90;;;16.94;25.97;98686.59;4717843;29;123941;-90
2022/03/12 18:41:09;;;;;;;7.23;4.80;;;16.60;31.00;;;16.85;26.11;98681.19;4721604;29;123927;-90